createdAt,value
2018-05-13T00:00:09.743Z,90.25
2018-05-13T00:02:39.132Z,90.18
2018-05-13T00:05:08.472Z,89.95
2018-05-13T00:07:37.211Z,89.83
2018-05-13T00:10:05.745Z,89.76
2018-05-13T00:12:34.234Z,90.09
2018-05-13T00:15:02.854Z,90.27
2018-05-13T00:17:32.410Z,90.29
2018-05-13T00:20:01.869Z,90.36
2018-05-13T00:22:30.543Z,90.23
2018-05-13T00:25:00.045Z,90.05
2018-05-13T00:27:29.221Z,89.87
2018-05-13T00:29:57.934Z,89.84
2018-05-13T00:32:27.155Z,89.65
2018-05-13T00:34:56.666Z,89.51
2018-05-13T00:37:25.833Z,89.26
2018-05-13T00:39:54.505Z,89.05
2018-05-13T00:42:23.303Z,88.42
2018-05-13T00:44:52.066Z,88.71
2018-05-13T00:47:20.757Z,89.09
2018-05-13T00:49:49.611Z,89.40
2018-05-13T00:52:18.916Z,89.32
2018-05-13T00:54:59.381Z,88.95
2018-05-13T00:57:29.624Z,88.70
2018-05-13T00:59:59.159Z,88.61
2018-05-13T01:02:28.648Z,88.67
2018-05-13T01:04:57.516Z,88.78
2018-05-13T01:07:26.348Z,88.89
2018-05-13T01:09:55.089Z,89.07
2018-05-13T01:12:23.860Z,88.86
2018-05-13T01:14:52.677Z,88.89
2018-05-13T01:17:21.478Z,88.85
2018-05-13T01:19:50.049Z,89.09
2018-05-13T01:22:19.604Z,89.37
2018-05-13T01:24:48.608Z,89.65
2018-05-13T01:27:17.903Z,89.67
2018-05-13T01:29:47.907Z,89.63
2018-05-13T01:32:16.701Z,89.96
2018-05-13T01:34:45.290Z,89.92
2018-05-13T01:37:14.013Z,90.07
2018-05-13T01:39:42.909Z,89.93
2018-05-13T01:42:11.458Z,90.16
2018-05-13T01:44:40.136Z,90.13
2018-05-13T01:47:08.736Z,89.93
2018-05-13T01:49:38.043Z,89.86
2018-05-13T01:52:06.880Z,89.78
2018-05-13T01:54:35.530Z,89.73
2018-05-13T01:57:04.691Z,89.75
2018-05-13T01:59:34.036Z,90.10
2018-05-13T02:02:03.043Z,90.15
2018-05-13T02:04:31.854Z,90.45
2018-05-13T02:07:00.619Z,90.66
2018-05-13T02:09:30.770Z,90.87
2018-05-13T02:12:00.199Z,90.97
2018-05-13T02:14:28.804Z,91.35
2018-05-13T02:16:57.506Z,91.52
2018-05-13T02:19:26.235Z,91.80
2018-05-13T02:21:55.359Z,92.03
2018-05-13T02:24:23.923Z,92.37
2018-05-13T02:26:53.374Z,92.69
2018-05-13T02:29:23.077Z,92.92
2018-05-13T02:31:52.990Z,92.80
2018-05-13T02:34:21.621Z,92.49
2018-05-13T02:36:51.195Z,92.27
2018-05-13T02:39:19.879Z,91.54
2018-05-13T02:41:48.381Z,91.52
2018-05-13T02:44:17.062Z,91.38
2018-05-13T02:46:46.547Z,91.18
2018-05-13T02:49:15.260Z,90.92
2018-05-13T02:51:43.945Z,91.03
2018-05-13T02:54:12.695Z,90.92
2018-05-13T02:56:41.355Z,90.56
2018-05-13T02:59:10.451Z,90.33
2018-05-13T03:01:39.817Z,90.18
2018-05-13T03:04:08.736Z,90.03
2018-05-13T03:06:37.504Z,89.94
2018-05-13T03:09:07.154Z,89.64
2018-05-13T03:11:35.869Z,89.08
2018-05-13T03:14:04.569Z,88.62
2018-05-13T03:16:33.141Z,88.14
2018-05-13T03:19:03.602Z,88.61
2018-05-13T03:21:32.322Z,88.79
2018-05-13T03:24:00.993Z,88.98
2018-05-13T03:26:30.339Z,89.19
2018-05-13T03:28:59.279Z,89.21
2018-05-13T03:31:28.520Z,88.98
2018-05-13T03:33:58.032Z,88.85
2018-05-13T03:36:26.521Z,88.69
2018-05-13T03:38:55.265Z,88.70
2018-05-13T03:41:23.743Z,88.77
2018-05-13T03:43:53.965Z,88.88
2018-05-13T03:46:22.665Z,88.94
2018-05-13T03:48:51.382Z,88.92
2018-05-13T03:51:20.057Z,88.88
2018-05-13T03:53:49.500Z,88.99
2018-05-13T03:56:18.070Z,89.02
2018-05-13T03:58:46.617Z,89.05
2018-05-13T04:01:15.171Z,89.01
2018-05-13T04:03:44.158Z,89.03
2018-05-13T04:06:13.119Z,89.10
2018-05-13T04:08:59.670Z,89.38
2018-05-13T04:11:46.025Z,89.44
2018-05-13T04:14:32.417Z,89.36
2018-05-13T04:17:01.062Z,89.31
2018-05-13T04:19:29.661Z,89.66
2018-05-13T04:21:58.341Z,89.98
2018-05-13T04:24:28.377Z,89.89
2018-05-13T04:26:58.000Z,90.32
2018-05-13T04:29:26.500Z,90.35
2018-05-13T04:31:55.130Z,90.09
2018-05-13T04:34:24.461Z,90.24
2018-05-13T04:36:53.019Z,90.63
2018-05-13T04:39:21.528Z,90.61
2018-05-13T04:44:24.742Z,90.60
2018-05-13T04:46:53.690Z,90.54
2018-05-13T04:49:22.573Z,90.54
2018-05-13T04:51:51.421Z,90.42
2018-05-13T04:54:21.811Z,90.42
2018-05-13T04:56:50.516Z,90.64
2018-05-13T04:59:19.060Z,90.48
2018-05-13T05:01:47.808Z,90.42
2018-05-13T05:04:16.964Z,90.13
2018-05-13T05:06:45.494Z,90.17
2018-05-13T05:09:14.679Z,89.72
2018-05-13T05:11:43.358Z,89.59
2018-05-13T05:14:12.019Z,88.71
2018-05-13T05:16:41.320Z,88.26
2018-05-13T05:19:09.922Z,88.53
2018-05-13T05:21:38.940Z,88.32
2018-05-13T05:24:08.185Z,88.26
2018-05-13T05:26:37.240Z,88.05
2018-05-13T05:29:06.556Z,89.07
2018-05-13T05:31:35.906Z,90.42
2018-05-13T05:34:04.488Z,90.73
2018-05-13T05:36:33.871Z,90.14
2018-05-13T05:39:02.569Z,89.82
2018-05-13T05:41:31.200Z,89.41
2018-05-13T05:44:09.865Z,88.55
2018-05-13T05:46:40.061Z,88.14
2018-05-13T05:49:09.052Z,87.31
2018-05-13T05:51:37.659Z,86.08
2018-05-13T05:54:06.284Z,85.34
2018-05-13T05:56:35.442Z,83.86
2018-05-13T05:59:04.923Z,82.86
2018-05-13T06:01:33.503Z,82.74
2018-05-13T06:04:02.043Z,81.40
2018-05-13T06:06:30.746Z,80.98
2018-05-13T06:08:59.270Z,80.70
2018-05-13T06:11:27.859Z,81.64
2018-05-13T06:13:56.402Z,83.75
2018-05-13T06:16:26.023Z,82.87
2018-05-13T06:18:57.126Z,83.69
2018-05-13T06:21:26.301Z,81.58
2018-05-13T06:23:56.672Z,79.92
2018-05-13T06:26:25.382Z,79.37
2018-05-13T06:28:54.132Z,80.12
2018-05-13T06:31:22.898Z,79.63
2018-05-13T06:33:52.143Z,78.85
2018-05-13T06:36:21.003Z,79.13
2018-05-13T06:38:50.613Z,78.70
2018-05-13T06:41:19.405Z,78.08
2018-05-13T06:43:48.221Z,77.66
2018-05-13T06:46:16.990Z,75.38
2018-05-13T06:48:46.891Z,76.04
2018-05-13T06:51:17.101Z,73.11
2018-05-13T06:53:45.772Z,70.96
2018-05-13T06:56:14.775Z,70.35
2018-05-13T06:58:43.507Z,73.47
2018-05-13T07:01:12.176Z,77.87
2018-05-13T07:03:41.728Z,81.09
2018-05-13T07:06:10.407Z,81.15
2018-05-13T07:08:39.965Z,80.69
2018-05-13T07:11:08.786Z,77.95
2018-05-13T07:13:37.576Z,71.55
2018-05-13T07:16:06.360Z,65.82
2018-05-13T07:18:36.503Z,66.73
2018-05-13T07:21:06.599Z,68.51
2018-05-13T07:23:35.740Z,69.56
2018-05-13T07:26:06.601Z,65.70
2018-05-13T07:28:36.365Z,61.95
2018-05-13T07:31:05.499Z,61.95
2018-05-13T07:33:34.202Z,63.50
2018-05-13T07:36:04.609Z,65.17
2018-05-13T07:38:35.021Z,67.64
2018-05-13T07:41:04.823Z,67.57
2018-05-13T07:43:35.688Z,63.10
2018-05-13T07:46:05.178Z,59.77
2018-05-13T07:48:34.748Z,57.70
2018-05-13T07:51:03.756Z,57.78
2018-05-13T07:53:33.063Z,55.62
2018-05-13T07:56:01.835Z,56.33
2018-05-13T07:58:31.187Z,52.56
2018-05-13T08:00:59.933Z,55.75
2018-05-13T08:03:28.926Z,57.59
2018-05-13T08:05:57.737Z,55.08
2018-05-13T08:08:26.922Z,54.82
2018-05-13T08:10:57.001Z,58.80
2018-05-13T08:13:26.497Z,59.60
2018-05-13T08:15:56.109Z,56.77
2018-05-13T08:18:26.376Z,57.21
2018-05-13T08:20:55.100Z,56.55
2018-05-13T08:23:26.320Z,55.25
2018-05-13T08:25:56.191Z,53.92
2018-05-13T08:28:28.733Z,54.50
2018-05-13T08:30:57.926Z,48.36
2018-05-13T08:33:27.696Z,45.46
2018-05-13T08:35:57.292Z,45.29
2018-05-13T08:38:30.472Z,44.29
2018-05-13T08:41:00.760Z,43.22
2018-05-13T08:43:32.416Z,43.41
2018-05-13T08:46:01.351Z,42.45
2018-05-13T08:48:32.496Z,40.16
2018-05-13T08:51:02.303Z,40.82
2018-05-13T08:53:31.478Z,47.64
2018-05-13T08:56:03.174Z,49.96
2018-05-13T08:58:32.143Z,47.19
2018-05-13T09:01:00.912Z,48.24
2018-05-13T09:03:33.575Z,43.46
2018-05-13T09:06:03.890Z,42.51
2018-05-13T09:08:32.933Z,52.96
2018-05-13T09:11:02.174Z,46.01
2018-05-13T09:13:31.047Z,44.15
2018-05-13T09:16:04.495Z,40.46
2018-05-13T09:18:33.220Z,40.00
2018-05-13T09:21:02.316Z,39.85
2018-05-13T09:23:31.048Z,37.52
2018-05-13T09:25:59.700Z,40.71
2018-05-13T09:28:28.380Z,48.16
2018-05-13T09:30:57.586Z,42.49
2018-05-13T09:33:27.324Z,39.93
2018-05-13T09:35:56.801Z,41.90
2018-05-13T09:38:26.205Z,42.04
2018-05-13T09:40:54.932Z,39.35
2018-05-13T09:43:24.430Z,42.50
2018-05-13T09:45:53.029Z,40.10
2018-05-13T09:48:21.735Z,37.84
2018-05-13T09:50:50.405Z,39.69
2018-05-13T09:53:19.187Z,42.01
2018-05-13T09:55:49.971Z,39.63
2018-05-13T09:58:19.216Z,42.06
2018-05-13T10:00:48.579Z,47.92
2018-05-13T10:03:17.763Z,54.34
2018-05-13T10:05:47.316Z,46.73
2018-05-13T10:08:15.969Z,46.50
2018-05-13T10:10:44.848Z,46.75
2018-05-13T10:13:14.225Z,50.76
2018-05-13T10:15:42.859Z,48.11
2018-05-13T10:18:11.829Z,47.17
2018-05-13T10:20:41.329Z,42.02
2018-05-13T10:23:10.002Z,45.95
2018-05-13T10:25:38.811Z,47.39
2018-05-13T10:28:07.323Z,46.23
2018-05-13T10:30:35.986Z,45.64
2018-05-13T10:33:06.154Z,46.12
2018-05-13T10:35:36.662Z,48.31
2018-05-13T10:38:05.271Z,48.62
2018-05-13T10:40:33.963Z,42.70
2018-05-13T10:43:04.399Z,40.22
2018-05-13T10:45:35.022Z,39.07
2018-05-13T10:48:03.753Z,39.56
2018-05-13T10:50:33.192Z,41.46
2018-05-13T10:53:01.754Z,39.16
2018-05-13T10:55:30.333Z,42.56
2018-05-13T10:57:58.966Z,41.41
2018-05-13T11:00:27.642Z,36.18
2018-05-13T11:02:56.774Z,38.98
2018-05-13T11:05:25.964Z,39.49
2018-05-13T11:07:54.874Z,38.47
2018-05-13T11:10:23.867Z,38.03
2018-05-13T11:12:52.468Z,39.27
2018-05-13T11:15:22.042Z,38.79
2018-05-13T11:17:51.609Z,40.68
2018-05-13T11:20:20.298Z,41.83
2018-05-13T11:22:48.971Z,39.19
2018-05-13T11:25:17.591Z,37.45
2018-05-13T11:27:46.381Z,38.21
2018-05-13T11:30:15.097Z,39.40
2018-05-13T11:32:44.180Z,37.11
2018-05-13T11:35:15.133Z,37.64
2018-05-13T11:37:48.569Z,39.68
2018-05-13T11:40:17.635Z,39.66
2018-05-13T11:42:49.011Z,40.79
2018-05-13T11:45:18.457Z,40.06
2018-05-13T11:47:47.918Z,35.67
2018-05-13T11:50:16.605Z,38.60
2018-05-13T11:52:46.941Z,36.10
2018-05-13T11:55:20.060Z,36.70
2018-05-13T11:57:49.671Z,36.33
2018-05-13T12:00:19.344Z,34.68
2018-05-13T12:02:48.490Z,38.78
2018-05-13T12:05:17.737Z,41.00
2018-05-13T12:07:47.324Z,36.13
2018-05-13T12:10:16.657Z,36.13
2018-05-13T12:12:45.687Z,38.40
2018-05-13T12:15:16.277Z,39.25
2018-05-13T12:17:45.104Z,39.36
2018-05-13T12:20:14.009Z,41.87
2018-05-13T12:22:44.254Z,42.06
2018-05-13T12:25:14.785Z,41.14
2018-05-13T12:27:44.969Z,40.06
2018-05-13T12:30:14.945Z,35.94
2018-05-13T12:32:43.793Z,35.68
2018-05-13T12:35:12.608Z,39.03
2018-05-13T12:37:41.825Z,38.64
2018-05-13T12:40:10.595Z,38.54
2018-05-13T12:42:40.263Z,35.54
2018-05-13T12:45:08.940Z,37.70
2018-05-13T12:47:38.044Z,38.54
2018-05-13T12:50:07.829Z,37.62
2018-05-13T12:52:37.587Z,38.74
2018-05-13T12:55:07.391Z,39.23
2018-05-13T12:57:37.791Z,38.54
2018-05-13T13:00:06.543Z,38.95
2018-05-13T13:02:35.330Z,40.94
2018-05-13T13:05:05.268Z,38.40
2018-05-13T13:07:34.786Z,38.98
2018-05-13T13:10:04.322Z,39.49
2018-05-13T13:12:33.191Z,41.34
2018-05-13T13:15:03.071Z,41.39
2018-05-13T13:17:33.125Z,40.80
2018-05-13T13:20:03.306Z,41.65
2018-05-13T13:22:32.391Z,40.10
2018-05-13T13:25:01.895Z,42.18
2018-05-13T13:27:31.829Z,43.49
2018-05-13T13:30:00.856Z,40.88
2018-05-13T13:32:29.650Z,39.92
2018-05-13T13:34:58.296Z,43.28
2018-05-13T13:37:27.177Z,40.04
2018-05-13T13:39:55.779Z,42.59
2018-05-13T13:42:24.417Z,42.21
2018-05-13T13:44:53.449Z,41.06
2018-05-13T13:47:22.288Z,42.24
2018-05-13T13:49:51.531Z,42.05
2018-05-13T13:52:20.921Z,40.48
2018-05-13T13:54:50.999Z,42.74
2018-05-13T13:57:19.760Z,43.86
2018-05-13T13:59:49.204Z,43.60
2018-05-13T14:02:17.978Z,42.62
2018-05-13T14:04:46.594Z,41.44
2018-05-13T14:07:17.073Z,43.48
2018-05-13T14:09:45.786Z,43.87
2018-05-13T14:12:14.455Z,42.65
2018-05-13T14:14:44.041Z,39.89
2018-05-13T14:17:12.767Z,42.00
2018-05-13T14:19:42.045Z,43.49
2018-05-13T14:22:12.436Z,46.42
2018-05-13T14:24:41.232Z,44.12
2018-05-13T14:27:10.700Z,44.61
2018-05-13T14:29:40.029Z,45.86
2018-05-13T14:32:09.508Z,45.75
2018-05-13T14:34:38.119Z,44.32
2018-05-13T14:37:06.750Z,43.48
2018-05-13T14:39:35.383Z,45.15
2018-05-13T14:42:03.922Z,41.88
2018-05-13T14:44:32.612Z,44.39
2018-05-13T14:47:01.301Z,44.28
2018-05-13T14:49:30.783Z,42.65
2018-05-13T14:52:00.063Z,43.82
2018-05-13T14:54:29.524Z,42.43
2018-05-13T14:56:58.414Z,41.78
2018-05-13T14:59:27.308Z,40.54
2018-05-13T15:01:56.001Z,43.15
2018-05-13T15:04:24.613Z,43.29
2018-05-13T15:06:55.568Z,41.77
2018-05-13T15:09:25.265Z,43.32
2018-05-13T15:11:54.034Z,44.30
2018-05-13T15:14:22.792Z,43.06
2018-05-13T15:16:51.771Z,42.65
2018-05-13T15:19:20.607Z,42.59
2018-05-13T15:21:50.576Z,42.65
2018-05-13T15:24:19.655Z,41.99
2018-05-13T15:26:48.222Z,43.38
2018-05-13T15:29:16.871Z,44.00
2018-05-13T15:31:45.548Z,45.82
2018-05-13T15:34:14.218Z,47.73
2018-05-13T15:36:43.695Z,48.73
2018-05-13T15:39:12.733Z,49.89
2018-05-13T15:41:41.507Z,49.83
2018-05-13T15:44:10.315Z,51.58
2018-05-13T15:46:39.822Z,50.67
2018-05-13T15:49:08.623Z,52.93
2018-05-13T15:51:37.575Z,52.45
2018-05-13T15:54:08.022Z,53.22
2018-05-13T15:56:36.877Z,51.31
2018-05-13T15:59:06.353Z,51.81
2018-05-13T16:01:36.302Z,52.60
2018-05-13T16:04:04.919Z,52.93
2018-05-13T16:06:33.578Z,52.48
2018-05-13T16:09:02.988Z,53.77
2018-05-13T16:11:31.628Z,51.62
2018-05-13T16:14:00.388Z,53.38
2018-05-13T16:16:29.744Z,52.14
2018-05-13T16:18:58.407Z,52.80
2018-05-13T16:21:27.064Z,53.64
2018-05-13T16:23:56.484Z,53.59
2018-05-13T16:26:25.810Z,52.70
2018-05-13T16:28:54.636Z,51.97
2018-05-13T16:31:23.326Z,52.18
2018-05-13T16:33:52.889Z,53.11
2018-05-13T16:36:21.666Z,54.20
2018-05-13T16:38:50.337Z,54.11
2018-05-13T16:41:19.043Z,55.25
2018-05-13T16:43:48.619Z,55.24
2018-05-13T16:46:17.401Z,53.92
2018-05-13T16:48:46.350Z,53.23
2018-05-13T16:51:15.855Z,55.09
2018-05-13T16:53:44.704Z,55.25
2018-05-13T16:56:15.514Z,55.33
2018-05-13T16:58:44.702Z,56.11
2018-05-13T17:01:14.265Z,56.10
2018-05-13T17:03:43.785Z,56.72
2018-05-13T17:06:12.852Z,57.33
2018-05-13T17:08:42.318Z,57.22
2018-05-13T17:11:11.239Z,57.47
2018-05-13T17:13:40.237Z,58.09
2018-05-13T17:16:09.083Z,58.45
2018-05-13T17:18:37.779Z,58.95
2018-05-13T17:21:06.503Z,59.60
2018-05-13T17:23:35.498Z,60.05
2018-05-13T17:26:05.917Z,60.55
2018-05-13T17:28:36.009Z,61.18
2018-05-13T17:31:04.675Z,62.03
2018-05-13T17:33:34.077Z,62.29
2018-05-13T17:36:03.642Z,63.13
2018-05-13T17:38:32.318Z,63.14
2018-05-13T17:41:03.606Z,63.48
2018-05-13T17:43:32.382Z,64.18
2018-05-13T17:46:00.874Z,65.56
2018-05-13T17:48:29.585Z,66.28
2018-05-13T17:50:58.346Z,66.16
2018-05-13T17:53:28.366Z,66.04
2018-05-13T17:55:59.116Z,66.53
2018-05-13T17:58:27.892Z,67.17
2018-05-13T18:00:57.489Z,67.50
2018-05-13T18:03:26.599Z,67.62
2018-05-13T18:05:56.133Z,68.09
2018-05-13T18:08:25.221Z,68.25
2018-05-13T18:10:54.083Z,69.30
2018-05-13T18:13:23.067Z,69.08
2018-05-13T18:15:51.878Z,69.54
2018-05-13T18:18:21.497Z,69.96
2018-05-13T18:20:50.194Z,70.06
2018-05-13T18:23:19.658Z,69.53
2018-05-13T18:25:48.875Z,69.90
2018-05-13T18:28:17.638Z,70.08
2018-05-13T18:30:46.912Z,70.30
2018-05-13T18:33:15.542Z,70.93
2018-05-13T18:35:45.234Z,70.84
2018-05-13T18:38:13.965Z,71.64
2018-05-13T18:40:42.568Z,71.31
2018-05-13T18:43:12.039Z,71.00
2018-05-13T18:45:42.601Z,71.59
2018-05-13T18:48:11.408Z,71.19
2018-05-13T18:50:40.571Z,71.08
2018-05-13T18:53:10.069Z,71.29
2018-05-13T18:55:39.940Z,71.48
2018-05-13T18:58:08.556Z,71.68
2018-05-13T19:00:37.368Z,71.93
2018-05-13T19:03:07.049Z,72.52
2018-05-13T19:05:35.940Z,73.05
2018-05-13T19:08:06.194Z,73.54
2018-05-13T19:10:35.103Z,74.01
2018-05-13T19:13:04.601Z,74.29
2018-05-13T19:15:34.572Z,74.64
2018-05-13T19:18:03.372Z,75.01
2018-05-13T19:20:32.393Z,75.27
2018-05-13T19:23:02.469Z,75.87
2018-05-13T19:25:31.806Z,75.97
2018-05-13T19:28:01.159Z,75.45
2018-05-13T19:30:30.204Z,75.60
2018-05-13T19:32:59.816Z,75.59
2018-05-13T19:35:28.764Z,75.77
2018-05-13T19:37:57.895Z,76.10
2018-05-13T19:41:30.311Z,76.10
2018-05-13T19:44:00.565Z,75.89
2018-05-13T19:46:30.440Z,75.85
2018-05-13T19:48:59.366Z,75.38
2018-05-13T19:51:28.412Z,75.27
2018-05-13T19:53:57.812Z,75.17
2018-05-13T19:56:27.554Z,75.14
2018-05-13T19:58:56.699Z,75.08
2018-05-13T20:01:26.083Z,75.63
2018-05-13T20:03:55.746Z,75.59
2018-05-13T20:06:24.583Z,75.92
2018-05-13T20:08:54.320Z,76.10
2018-05-13T20:11:23.137Z,76.57
2018-05-13T20:13:53.209Z,76.83
2018-05-13T20:16:22.512Z,77.28
2018-05-13T20:18:51.643Z,77.11
2018-05-13T20:21:20.791Z,77.07
2018-05-13T20:23:49.973Z,76.64
2018-05-13T20:26:18.950Z,76.69
2018-05-13T20:28:48.482Z,76.42
2018-05-13T20:31:19.163Z,75.77
2018-05-13T20:33:49.165Z,75.32
2018-05-13T20:36:18.872Z,74.73
2018-05-13T20:38:47.986Z,73.76
2018-05-13T20:41:16.599Z,73.90
2018-05-13T20:43:46.448Z,73.93
2018-05-13T20:46:15.958Z,74.62
2018-05-13T20:48:44.744Z,74.85
2018-05-13T20:51:13.657Z,75.12
2018-05-13T20:53:42.355Z,74.38
2018-05-13T20:56:12.467Z,74.23
2018-05-13T20:58:42.103Z,74.94
2018-05-13T21:01:11.060Z,75.39
2018-05-13T21:03:39.686Z,74.97
2018-05-13T21:06:09.219Z,74.81
2018-05-13T21:08:38.884Z,74.43
2018-05-13T21:11:07.908Z,74.49
2018-05-13T21:13:37.787Z,74.89
2018-05-13T21:16:07.382Z,74.68
2018-05-13T21:18:36.074Z,74.98
2018-05-13T21:21:04.690Z,75.23
2018-05-13T21:23:33.397Z,75.18
2018-05-13T21:26:02.559Z,75.17
2018-05-13T21:28:32.142Z,75.44
2018-05-13T21:31:01.469Z,75.39
2018-05-13T21:33:30.303Z,75.50
2018-05-13T21:35:59.144Z,76.21
2018-05-13T21:38:28.701Z,77.80
2018-05-13T21:40:59.051Z,79.27
2018-05-13T21:43:27.758Z,79.59
2018-05-13T21:45:56.633Z,80.69
2018-05-13T21:48:25.981Z,81.62
2018-05-13T21:50:54.948Z,82.43
2018-05-13T21:53:25.400Z,82.53
2018-05-13T21:55:54.936Z,83.51
2018-05-13T21:58:25.970Z,83.96
2018-05-13T22:00:54.849Z,84.14
2018-05-13T22:03:23.749Z,84.39
2018-05-13T22:05:52.339Z,84.72
2018-05-13T22:08:20.958Z,85.21
2018-05-13T22:10:49.864Z,85.49
2018-05-13T22:13:19.363Z,86.28
2018-05-13T22:15:48.793Z,86.51
2018-05-13T22:18:18.255Z,86.50
2018-05-13T22:20:47.220Z,87.14
2018-05-13T22:23:15.944Z,87.45
2018-05-13T22:25:45.857Z,87.81
2018-05-13T22:28:14.811Z,88.36
2018-05-13T22:30:43.616Z,88.59
2018-05-13T22:33:12.267Z,88.71
2018-05-13T22:35:40.810Z,88.69
2018-05-13T22:38:10.531Z,88.78
2018-05-13T22:40:39.293Z,88.69
2018-05-13T22:43:08.154Z,88.43
2018-05-13T22:45:37.533Z,88.40
2018-05-13T22:48:06.104Z,88.56
2018-05-13T22:50:34.743Z,88.73
2018-05-13T22:53:03.456Z,88.52
2018-05-13T22:55:32.107Z,89.20
2018-05-13T22:58:01.699Z,87.60
2018-05-13T23:00:31.028Z,86.12
2018-05-13T23:02:59.700Z,86.56
2018-05-13T23:05:28.315Z,85.97
2018-05-13T23:07:56.888Z,87.88
2018-05-13T23:10:26.412Z,87.81
2018-05-13T23:12:55.742Z,88.26
2018-05-13T23:15:24.300Z,88.36
2018-05-13T23:17:52.921Z,88.83
2018-05-13T23:20:21.656Z,89.33
2018-05-13T23:22:50.177Z,89.66
2018-05-13T23:25:18.844Z,89.72
2018-05-13T23:27:47.435Z,90.40
2018-05-13T23:30:16.111Z,90.53
2018-05-13T23:32:45.421Z,90.93
2018-05-13T23:35:14.460Z,90.76
2018-05-13T23:38:05.953Z,91.34
2018-05-13T23:40:34.554Z,91.27
2018-05-13T23:43:03.506Z,91.69
2018-05-13T23:45:44.943Z,91.58
2018-05-13T23:48:13.689Z,91.44
2018-05-13T23:50:42.239Z,91.22
2018-05-13T23:53:10.699Z,91.26
2018-05-13T23:55:39.374Z,90.40
2018-05-13T23:58:08.104Z,90.58
